sensor_id;sensor_type;location;lat;lon;timestamp;temperature;humidity
66831;DHT22;53739;44.224;22.528;2023-02-28T00:00:20;128.00;2252.80
66831;DHT22;53739;44.224;22.528;2023-02-28T00:02:47;128.10;947.20
66831;DHT22;53739;44.224;22.528;2023-02-28T00:05:16;128.20;2252.80
66831;DHT22;53739;44.224;22.528;2023-02-28T00:07:42;128.10;2176.00
66831;DHT22;53739;44.224;22.528;2023-02-28T00:10:10;128.00;2252.80
66831;DHT22;53739;44.224;22.528;2023-02-28T00:12:37;128.10;128.00
66831;DHT22;53739;44.224;22.528;2023-02-28T00:15:08;128.10;2048.00
66831;DHT22;53739;44.224;22.528;2023-02-28T00:17:34;128.00;1382.40
66831;DHT22;53739;44.224;22.528;2023-02-28T00:20:00;128.10;819.20
66831;DHT22;53739;44.224;22.528;2023-02-28T00:22:30;128.00;1945.60
66831;DHT22;53739;44.224;22.528;2023-02-28T00:24:56;128.00;2252.80
66831;DHT22;53739;44.224;22.528;2023-02-28T00:27:21;128.00;1177.60
66831;DHT22;53739;44.224;22.528;2023-02-28T00:29:47;128.20;691.20
66831;DHT22;53739;44.224;22.528;2023-02-28T00:32:13;128.30;6502.40
66831;DHT22;53739;44.224;22.528;2023-02-28T00:34:39;128.40;6502.40
66831;DHT22;53739;44.224;22.528;2023-02-28T00:37:06;128.40;6502.40
66831;DHT22;53739;44.224;22.528;2023-02-28T00:39:37;128.40;1689.60
66831;DHT22;53739;44.224;22.528;2023-02-28T00:42:03;128.40;1945.60
66831;DHT22;53739;44.224;22.528;2023-02-28T00:44:29;128.40;2252.80
66831;DHT22;53739;44.224;22.528;2023-02-28T00:46:56;128.40;2252.80
66831;DHT22;53739;44.224;22.528;2023-02-28T00:49:23;128.40;563.20
66831;DHT22;53739;44.224;22.528;2023-02-28T00:51:49;128.50;972.80
66831;DHT22;53739;44.224;22.528;2023-02-28T00:54:15;128.50;1177.60
66831;DHT22;53739;44.224;22.528;2023-02-28T00:56:42;128.60;1433.60
66831;DHT22;53739;44.224;22.528;2023-02-28T00:59:08;128.60;1817.60
66831;DHT22;53739;44.224;22.528;2023-02-28T01:01:34;128.60;2176.00
66831;DHT22;53739;44.224;22.528;2023-02-28T01:03:59;128.40;2252.80
66831;DHT22;53739;44.224;22.528;2023-02-28T01:06:25;128.40;2252.80
66831;DHT22;53739;44.224;22.528;2023-02-28T01:08:51;128.40;2252.80
66831;DHT22;53739;44.224;22.528;2023-02-28T01:11:18;128.30;2252.80
66831;DHT22;53739;44.224;22.528;2023-02-28T01:13:45;128.30;2099.20
66831;DHT22;53739;44.224;22.528;2023-02-28T01:16:12;128.40;2252.80
66831;DHT22;53739;44.224;22.528;2023-02-28T01:18:38;128.40;2099.20
66831;DHT22;53739;44.224;22.528;2023-02-28T01:21:05;128.40;2252.80
66831;DHT22;53739;44.224;22.528;2023-02-28T01:23:31;128.40;2252.80
66831;DHT22;53739;44.224;22.528;2023-02-28T01:26:06;128.30;2252.80
66831;DHT22;53739;44.224;22.528;2023-02-28T01:28:32;128.30;2252.80
66831;DHT22;53739;44.224;22.528;2023-02-28T01:30:58;128.40;2252.80
66831;DHT22;53739;44.224;22.528;2023-02-28T01:33:25;128.40;2252.80
66831;DHT22;53739;44.224;22.528;2023-02-28T01:36:00;128.50;2252.80
66831;DHT22;53739;44.224;22.528;2023-02-28T01:38:27;128.50;2252.80
66831;DHT22;53739;44.224;22.528;2023-02-28T01:40:53;128.50;2252.80
66831;DHT22;53739;44.224;22.528;2023-02-28T01:43:22;128.50;2252.80
66831;DHT22;53739;44.224;22.528;2023-02-28T01:45:49;128.60;2252.80
66831;DHT22;53739;44.224;22.528;2023-02-28T01:48:15;128.50;2252.80
66831;DHT22;53739;44.224;22.528;2023-02-28T01:50:44;128.50;2252.80
66831;DHT22;53739;44.224;22.528;2023-02-28T01:53:18;128.50;2252.80
66831;DHT22;53739;44.224;22.528;2023-02-28T01:55:47;128.50;2252.80
66831;DHT22;53739;44.224;22.528;2023-02-28T01:58:14;128.60;2252.80
66831;DHT22;53739;44.224;22.528;2023-02-28T02:00:41;128.50;2252.80
66831;DHT22;53739;44.224;22.528;2023-02-28T02:03:13;128.50;2252.80
66831;DHT22;53739;44.224;22.528;2023-02-28T02:05:40;128.50;2252.80
66831;DHT22;53739;44.224;22.528;2023-02-28T02:08:26;128.40;2252.80
66831;DHT22;53739;44.224;22.528;2023-02-28T02:10:59;128.20;2252.80
66831;DHT22;53739;44.224;22.528;2023-02-28T02:14:03;128.20;2252.80
66831;DHT22;53739;44.224;22.528;2023-02-28T02:28:03;128.10;2252.80
66831;DHT22;53739;44.224;22.528;2023-02-28T02:38:51;128.30;2252.80
66831;DHT22;53739;44.224;22.528;2023-02-28T02:46:47;128.40;2252.80
66831;DHT22;53739;44.224;22.528;2023-02-28T02:49:29;128.40;2252.80
66831;DHT22;53739;44.224;22.528;2023-02-28T02:51:58;128.40;2252.80
66831;DHT22;53739;44.224;22.528;2023-02-28T02:54:38;128.40;2252.80
66831;DHT22;53739;44.224;22.528;2023-02-28T02:57:31;128.30;2252.80
66831;DHT22;53739;44.224;22.528;2023-02-28T02:59:57;128.30;2252.80
66831;DHT22;53739;44.224;22.528;2023-02-28T03:02:25;128.40;2252.80
66831;DHT22;53739;44.224;22.528;2023-02-28T03:04:59;128.30;2252.80
66831;DHT22;53739;44.224;22.528;2023-02-28T03:07:27;128.40;2252.80
66831;DHT22;53739;44.224;22.528;2023-02-28T03:09:54;128.40;2252.80
66831;DHT22;53739;44.224;22.528;2023-02-28T03:12:29;128.40;2252.80
66831;DHT22;53739;44.224;22.528;2023-02-28T03:15:30;128.40;2252.80
66831;DHT22;53739;44.224;22.528;2023-02-28T03:23:20;128.20;2252.80
66831;DHT22;53739;44.224;22.528;2023-02-28T03:25:56;128.20;2252.80
66831;DHT22;53739;44.224;22.528;2023-02-28T03:29:04;128.10;2252.80
66831;DHT22;53739;44.224;22.528;2023-02-28T03:31:36;128.00;2252.80
66831;DHT22;53739;44.224;22.528;2023-02-28T03:34:34;103.30;2227.20
66831;DHT22;53739;44.224;22.528;2023-02-28T03:37:08;103.30;2227.20
66831;DHT22;53739;44.224;22.528;2023-02-28T03:39:41;103.30;2227.20
66831;DHT22;53739;44.224;22.528;2023-02-28T03:42:31;128.00;2252.80
66831;DHT22;53739;44.224;22.528;2023-02-28T03:45:20;128.00;2252.80
66831;DHT22;53739;44.224;22.528;2023-02-28T03:47:54;128.10;2252.80
66831;DHT22;53739;44.224;22.528;2023-02-28T03:50:26;128.20;2252.80
66831;DHT22;53739;44.224;22.528;2023-02-28T03:55:47;128.40;2252.80
66831;DHT22;53739;44.224;22.528;2023-02-28T04:01:10;128.30;2252.80
66831;DHT22;53739;44.224;22.528;2023-02-28T04:03:38;128.30;2252.80
66831;DHT22;53739;44.224;22.528;2023-02-28T04:06:06;128.40;2252.80
66831;DHT22;53739;44.224;22.528;2023-02-28T04:08:33;128.40;2252.80
66831;DHT22;53739;44.224;22.528;2023-02-28T04:13:48;128.60;2252.80
66831;DHT22;53739;44.224;22.528;2023-02-28T04:16:14;128.60;2252.80
66831;DHT22;53739;44.224;22.528;2023-02-28T04:18:40;128.50;2252.80
66831;DHT22;53739;44.224;22.528;2023-02-28T04:21:06;128.50;2252.80
66831;DHT22;53739;44.224;22.528;2023-02-28T04:23:32;128.50;2252.80
66831;DHT22;53739;44.224;22.528;2023-02-28T04:25:58;128.50;2252.80
66831;DHT22;53739;44.224;22.528;2023-02-28T04:28:25;128.60;2252.80
66831;DHT22;53739;44.224;22.528;2023-02-28T04:30:59;128.50;2252.80
66831;DHT22;53739;44.224;22.528;2023-02-28T04:33:25;128.50;2252.80
66831;DHT22;53739;44.224;22.528;2023-02-28T04:36:01;128.50;2252.80
66831;DHT22;53739;44.224;22.528;2023-02-28T04:38:28;128.50;2252.80
66831;DHT22;53739;44.224;22.528;2023-02-28T04:40:57;128.50;2252.80
66831;DHT22;53739;44.224;22.528;2023-02-28T04:43:22;128.40;2252.80
66831;DHT22;53739;44.224;22.528;2023-02-28T04:45:48;128.50;2252.80
66831;DHT22;53739;44.224;22.528;2023-02-28T04:48:14;128.50;2252.80
66831;DHT22;53739;44.224;22.528;2023-02-28T04:50:39;128.60;2252.80
66831;DHT22;53739;44.224;22.528;2023-02-28T04:53:05;128.70;2252.80
66831;DHT22;53739;44.224;22.528;2023-02-28T04:55:31;128.70;2252.80
66831;DHT22;53739;44.224;22.528;2023-02-28T04:57:57;128.70;2252.80
66831;DHT22;53739;44.224;22.528;2023-02-28T05:00:23;128.80;2252.80
66831;DHT22;53739;44.224;22.528;2023-02-28T05:02:49;128.80;2252.80
66831;DHT22;53739;44.224;22.528;2023-02-28T05:05:15;128.80;2252.80
66831;DHT22;53739;44.224;22.528;2023-02-28T05:07:44;128.80;2252.80
66831;DHT22;53739;44.224;22.528;2023-02-28T05:10:10;128.80;2252.80
66831;DHT22;53739;44.224;22.528;2023-02-28T05:12:36;128.80;2252.80
66831;DHT22;53739;44.224;22.528;2023-02-28T05:15:03;128.80;2252.80
66831;DHT22;53739;44.224;22.528;2023-02-28T05:17:30;128.80;2252.80
66831;DHT22;53739;44.224;22.528;2023-02-28T05:19:56;128.70;2252.80
66831;DHT22;53739;44.224;22.528;2023-02-28T05:22:21;128.60;2252.80
66831;DHT22;53739;44.224;22.528;2023-02-28T05:24:47;128.50;2252.80
66831;DHT22;53739;44.224;22.528;2023-02-28T05:27:13;128.60;2252.80
66831;DHT22;53739;44.224;22.528;2023-02-28T05:29:39;128.60;2252.80
66831;DHT22;53739;44.224;22.528;2023-02-28T05:32:11;128.70;2252.80
66831;DHT22;53739;44.224;22.528;2023-02-28T05:34:41;128.70;2252.80
66831;DHT22;53739;44.224;22.528;2023-02-28T05:37:11;128.80;2252.80
66831;DHT22;53739;44.224;22.528;2023-02-28T05:39:37;128.80;2252.80
66831;DHT22;53739;44.224;22.528;2023-02-28T05:42:04;128.80;2252.80
66831;DHT22;53739;44.224;22.528;2023-02-28T05:44:30;128.80;2252.80
66831;DHT22;53739;44.224;22.528;2023-02-28T05:46:56;128.90;2252.80
66831;DHT22;53739;44.224;22.528;2023-02-28T05:49:21;128.90;2252.80
66831;DHT22;53739;44.224;22.528;2023-02-28T05:51:47;128.90;2252.80
66831;DHT22;53739;44.224;22.528;2023-02-28T05:54:13;128.90;2252.80
66831;DHT22;53739;44.224;22.528;2023-02-28T05:56:39;128.90;2252.80
66831;DHT22;53739;44.224;22.528;2023-02-28T05:59:06;128.90;2252.80
66831;DHT22;53739;44.224;22.528;2023-02-28T06:01:38;153.60;2252.80
66831;DHT22;53739;44.224;22.528;2023-02-28T06:04:07;153.60;2252.80
66831;DHT22;53739;44.224;22.528;2023-02-28T06:06:33;153.60;2252.80
66831;DHT22;53739;44.224;22.528;2023-02-28T06:09:00;153.60;2252.80
66831;DHT22;53739;44.224;22.528;2023-02-28T06:11:27;153.60;2252.80
66831;DHT22;53739;44.224;22.528;2023-02-28T06:13:54;153.60;2252.80
66831;DHT22;53739;44.224;22.528;2023-02-28T06:16:21;153.60;2252.80
66831;DHT22;53739;44.224;22.528;2023-02-28T06:18:46;153.60;2252.80
66831;DHT22;53739;44.224;22.528;2023-02-28T06:21:12;153.60;2252.80
66831;DHT22;53739;44.224;22.528;2023-02-28T06:23:38;153.70;2252.80
66831;DHT22;53739;44.224;22.528;2023-02-28T06:26:04;153.70;2252.80
66831;DHT22;53739;44.224;22.528;2023-02-28T06:28:30;153.70;2252.80
66831;DHT22;53739;44.224;22.528;2023-02-28T06:30:56;153.70;2252.80
66831;DHT22;53739;44.224;22.528;2023-02-28T06:33:22;153.70;2252.80
66831;DHT22;53739;44.224;22.528;2023-02-28T06:35:51;153.70;2252.80
66831;DHT22;53739;44.224;22.528;2023-02-28T06:38:16;153.80;2252.80
66831;DHT22;53739;44.224;22.528;2023-02-28T06:40:44;153.80;2252.80
66831;DHT22;53739;44.224;22.528;2023-02-28T06:43:10;153.80;2252.80
66831;DHT22;53739;44.224;22.528;2023-02-28T06:45:43;153.80;2252.80
66831;DHT22;53739;44.224;22.528;2023-02-28T06:48:09;153.90;2252.80
66831;DHT22;53739;44.224;22.528;2023-02-28T06:50:36;153.90;2252.80
66831;DHT22;53739;44.224;22.528;2023-02-28T06:53:02;153.90;2252.80
66831;DHT22;53739;44.224;22.528;2023-02-28T06:55:28;153.90;2252.80
66831;DHT22;53739;44.224;22.528;2023-02-28T06:57:53;154.00;2252.80
66831;DHT22;53739;44.224;22.528;2023-02-28T07:00:20;154.10;2252.80
66831;DHT22;53739;44.224;22.528;2023-02-28T07:02:46;153.90;2252.80
66831;DHT22;53739;44.224;22.528;2023-02-28T07:05:12;154.00;2252.80
66831;DHT22;53739;44.224;22.528;2023-02-28T07:07:38;154.00;2252.80
66831;DHT22;53739;44.224;22.528;2023-02-28T07:10:12;154.00;2252.80
66831;DHT22;53739;44.224;22.528;2023-02-28T07:12:38;154.00;2252.80
66831;DHT22;53739;44.224;22.528;2023-02-28T07:15:05;153.90;2252.80
66831;DHT22;53739;44.224;22.528;2023-02-28T07:17:31;153.90;2252.80
66831;DHT22;53739;44.224;22.528;2023-02-28T07:19:57;153.90;2252.80
66831;DHT22;53739;44.224;22.528;2023-02-28T07:22:22;154.00;2252.80
66831;DHT22;53739;44.224;22.528;2023-02-28T07:24:48;154.00;2252.80
66831;DHT22;53739;44.224;22.528;2023-02-28T07:27:14;154.00;2252.80
66831;DHT22;53739;44.224;22.528;2023-02-28T07:29:49;154.00;2252.80
66831;DHT22;53739;44.224;22.528;2023-02-28T07:32:15;154.00;2252.80
66831;DHT22;53739;44.224;22.528;2023-02-28T07:34:41;154.00;2252.80
66831;DHT22;53739;44.224;22.528;2023-02-28T07:37:06;154.10;2252.80
66831;DHT22;53739;44.224;22.528;2023-02-28T07:39:32;154.10;2252.80
66831;DHT22;53739;44.224;22.528;2023-02-28T07:41:58;154.10;2252.80
66831;DHT22;53739;44.224;22.528;2023-02-28T07:44:25;154.10;2252.80
66831;DHT22;53739;44.224;22.528;2023-02-28T07:46:51;154.10;2252.80
66831;DHT22;53739;44.224;22.528;2023-02-28T07:49:18;154.20;2252.80
66831;DHT22;53739;44.224;22.528;2023-02-28T07:51:44;154.20;2252.80
66831;DHT22;53739;44.224;22.528;2023-02-28T07:54:10;154.30;2252.80
66831;DHT22;53739;44.224;22.528;2023-02-28T07:56:35;154.30;2252.80
66831;DHT22;53739;44.224;22.528;2023-02-28T07:59:01;154.30;2252.80
66831;DHT22;53739;44.224;22.528;2023-02-28T08:01:27;154.30;2252.80
66831;DHT22;53739;44.224;22.528;2023-02-28T08:03:53;154.30;2252.80
66831;DHT22;53739;44.224;22.528;2023-02-28T08:06:22;154.40;2252.80
66831;DHT22;53739;44.224;22.528;2023-02-28T08:08:48;154.40;2252.80
66831;DHT22;53739;44.224;22.528;2023-02-28T08:11:15;154.30;2252.80
66831;DHT22;53739;44.224;22.528;2023-02-28T08:13:41;154.30;2252.80
66831;DHT22;53739;44.224;22.528;2023-02-28T08:16:11;154.30;2252.80
66831;DHT22;53739;44.224;22.528;2023-02-28T08:18:39;154.20;2252.80
66831;DHT22;53739;44.224;22.528;2023-02-28T08:21:09;154.20;2252.80
66831;DHT22;53739;44.224;22.528;2023-02-28T08:23:35;154.10;2252.80
66831;DHT22;53739;44.224;22.528;2023-02-28T08:26:02;154.00;2252.80
66831;DHT22;53739;44.224;22.528;2023-02-28T08:28:28;154.10;2252.80
66831;DHT22;53739;44.224;22.528;2023-02-28T08:30:54;154.10;2252.80
66831;DHT22;53739;44.224;22.528;2023-02-28T08:33:20;154.10;2252.80
66831;DHT22;53739;44.224;22.528;2023-02-28T08:35:46;154.10;2252.80
66831;DHT22;53739;44.224;22.528;2023-02-28T08:38:12;154.20;2252.80
66831;DHT22;53739;44.224;22.528;2023-02-28T08:40:38;154.20;2252.80
66831;DHT22;53739;44.224;22.528;2023-02-28T08:43:04;154.10;2252.80
66831;DHT22;53739;44.224;22.528;2023-02-28T08:45:30;154.10;2252.80
66831;DHT22;53739;44.224;22.528;2023-02-28T08:47:56;154.10;2252.80
66831;DHT22;53739;44.224;22.528;2023-02-28T08:50:22;154.10;2252.80
66831;DHT22;53739;44.224;22.528;2023-02-28T08:52:48;154.20;2252.80
66831;DHT22;53739;44.224;22.528;2023-02-28T08:55:14;154.20;2252.80
66831;DHT22;53739;44.224;22.528;2023-02-28T08:57:39;154.20;2252.80
66831;DHT22;53739;44.224;22.528;2023-02-28T09:00:05;154.10;2252.80
66831;DHT22;53739;44.224;22.528;2023-02-28T09:02:33;154.10;2252.80
66831;DHT22;53739;44.224;22.528;2023-02-28T09:04:58;154.20;2252.80
66831;DHT22;53739;44.224;22.528;2023-02-28T09:07:24;154.20;2252.80
66831;DHT22;53739;44.224;22.528;2023-02-28T09:09:51;154.20;2252.80
66831;DHT22;53739;44.224;22.528;2023-02-28T09:12:24;154.20;2252.80
66831;DHT22;53739;44.224;22.528;2023-02-28T09:14:50;154.20;2252.80
66831;DHT22;53739;44.224;22.528;2023-02-28T09:17:16;154.20;2252.80
66831;DHT22;53739;44.224;22.528;2023-02-28T09:19:42;154.20;2252.80
66831;DHT22;53739;44.224;22.528;2023-02-28T09:22:09;154.30;2252.80
66831;DHT22;53739;44.224;22.528;2023-02-28T09:24:38;154.30;2252.80
66831;DHT22;53739;44.224;22.528;2023-02-28T09:27:04;154.30;2252.80
66831;DHT22;53739;44.224;22.528;2023-02-28T09:29:31;154.30;2252.80
66831;DHT22;53739;44.224;22.528;2023-02-28T09:31:57;154.40;2252.80
66831;DHT22;53739;44.224;22.528;2023-02-28T09:34:25;154.40;2252.80
66831;DHT22;53739;44.224;22.528;2023-02-28T09:36:51;154.50;2252.80
66831;DHT22;53739;44.224;22.528;2023-02-28T09:39:23;154.50;2252.80
66831;DHT22;53739;44.224;22.528;2023-02-28T09:41:54;154.40;2252.80
66831;DHT22;53739;44.224;22.528;2023-02-28T09:44:43;154.40;2252.80
66831;DHT22;53739;44.224;22.528;2023-02-28T09:47:31;154.40;2252.80
66831;DHT22;53739;44.224;22.528;2023-02-28T09:50:03;154.30;2252.80
66831;DHT22;53739;44.224;22.528;2023-02-28T09:52:33;154.20;2252.80
66831;DHT22;53739;44.224;22.528;2023-02-28T09:58:04;154.20;2252.80
66831;DHT22;53739;44.224;22.528;2023-02-28T10:00:34;154.20;2252.80
66831;DHT22;53739;44.224;22.528;2023-02-28T10:06:44;154.30;2252.80
66831;DHT22;53739;44.224;22.528;2023-02-28T10:08:50;154.30;2252.80
66831;DHT22;53739;44.224;22.528;2023-02-28T10:11:18;154.10;2252.80
66831;DHT22;53739;44.224;22.528;2023-02-28T10:14:00;154.10;2252.80
66831;DHT22;53739;44.224;22.528;2023-02-28T10:17:04;154.10;2252.80
66831;DHT22;53739;44.224;22.528;2023-02-28T10:19:39;154.10;2252.80
66831;DHT22;53739;44.224;22.528;2023-02-28T10:22:34;154.10;2252.80
66831;DHT22;53739;44.224;22.528;2023-02-28T10:25:08;154.10;2252.80
66831;DHT22;53739;44.224;22.528;2023-02-28T10:27:40;154.10;2252.80
66831;DHT22;53739;44.224;22.528;2023-02-28T10:30:11;154.20;2252.80
66831;DHT22;53739;44.224;22.528;2023-02-28T10:32:38;154.20;2252.80
66831;DHT22;53739;44.224;22.528;2023-02-28T10:35:18;154.20;2252.80
66831;DHT22;53739;44.224;22.528;2023-02-28T10:37:49;154.20;2252.80
66831;DHT22;53739;44.224;22.528;2023-02-28T10:43:05;154.10;2252.80
66831;DHT22;53739;44.224;22.528;2023-02-28T10:45:35;154.00;2252.80
66831;DHT22;53739;44.224;22.528;2023-02-28T10:58:52;154.20;2252.80
66831;DHT22;53739;44.224;22.528;2023-02-28T11:01:22;154.20;2252.80
66831;DHT22;53739;44.224;22.528;2023-02-28T11:03:48;154.30;2252.80
66831;DHT22;53739;44.224;22.528;2023-02-28T11:06:23;154.30;2252.80
66831;DHT22;53739;44.224;22.528;2023-02-28T11:08:55;154.30;2252.80
66831;DHT22;53739;44.224;22.528;2023-02-28T11:11:25;154.30;2252.80
66831;DHT22;53739;44.224;22.528;2023-02-28T11:14:03;154.30;2252.80
66831;DHT22;53739;44.224;22.528;2023-02-28T11:16:35;154.20;2252.80
66831;DHT22;53739;44.224;22.528;2023-02-28T11:19:02;154.20;2252.80
66831;DHT22;53739;44.224;22.528;2023-02-28T11:21:31;154.30;2252.80
66831;DHT22;53739;44.224;22.528;2023-02-28T11:24:04;154.30;2252.80
66831;DHT22;53739;44.224;22.528;2023-02-28T11:26:46;154.30;2252.80
66831;DHT22;53739;44.224;22.528;2023-02-28T11:29:23;154.30;2252.80
66831;DHT22;53739;44.224;22.528;2023-02-28T11:34:40;154.20;2252.80
66831;DHT22;53739;44.224;22.528;2023-02-28T11:37:12;154.30;2252.80
66831;DHT22;53739;44.224;22.528;2023-02-28T11:39:38;154.30;2252.80
66831;DHT22;53739;44.224;22.528;2023-02-28T11:42:31;154.30;2252.80
66831;DHT22;53739;44.224;22.528;2023-02-28T11:56:33;154.30;2252.80
66831;DHT22;53739;44.224;22.528;2023-02-28T11:59:10;154.30;2252.80
66831;DHT22;53739;44.224;22.528;2023-02-28T12:02:03;154.40;2252.80
66831;DHT22;53739;44.224;22.528;2023-02-28T12:10:29;154.40;2252.80
66831;DHT22;53739;44.224;22.528;2023-02-28T12:13:20;154.30;2252.80
66831;DHT22;53739;44.224;22.528;2023-02-28T12:16:01;154.30;2252.80
66831;DHT22;53739;44.224;22.528;2023-02-28T12:26:35;154.40;2252.80
66831;DHT22;53739;44.224;22.528;2023-02-28T12:32:11;154.50;2252.80
66831;DHT22;53739;44.224;22.528;2023-02-28T12:34:49;154.50;2252.80
66831;DHT22;53739;44.224;22.528;2023-02-28T12:37:29;154.50;2252.80
66831;DHT22;53739;44.224;22.528;2023-02-28T12:40:02;179.20;2252.80
66831;DHT22;53739;44.224;22.528;2023-02-28T12:43:00;154.50;2252.80
66831;DHT22;53739;44.224;22.528;2023-02-28T12:48:07;154.50;2252.80
66831;DHT22;53739;44.224;22.528;2023-02-28T12:50:34;154.50;2252.80
66831;DHT22;53739;44.224;22.528;2023-02-28T13:01:13;154.50;2252.80
66831;DHT22;53739;44.224;22.528;2023-02-28T13:09:16;154.30;2252.80
66831;DHT22;53739;44.224;22.528;2023-02-28T13:11:48;154.30;2252.80
66831;DHT22;53739;44.224;22.528;2023-02-28T13:19:41;154.40;2252.80
66831;DHT22;53739;44.224;22.528;2023-02-28T13:22:41;154.40;2252.80
66831;DHT22;53739;44.224;22.528;2023-02-28T13:27:52;154.50;2252.80
66831;DHT22;53739;44.224;22.528;2023-02-28T13:34:05;179.30;2252.80
66831;DHT22;53739;44.224;22.528;2023-02-28T13:36:31;179.30;2252.80
66831;DHT22;53739;44.224;22.528;2023-02-28T13:39:44;179.20;2252.80
66831;DHT22;53739;44.224;22.528;2023-02-28T13:41:49;179.20;2252.80
66831;DHT22;53739;44.224;22.528;2023-02-28T13:44:22;179.20;2252.80
66831;DHT22;53739;44.224;22.528;2023-02-28T14:03:38;154.50;2252.80
66831;DHT22;53739;44.224;22.528;2023-02-28T14:06:18;154.50;2252.80
66831;DHT22;53739;44.224;22.528;2023-02-28T14:09:15;154.40;2252.80
66831;DHT22;53739;44.224;22.528;2023-02-28T14:11:43;154.50;2252.80
66831;DHT22;53739;44.224;22.528;2023-02-28T14:17:06;154.50;2252.80
66831;DHT22;53739;44.224;22.528;2023-02-28T14:19:34;179.20;2252.80
66831;DHT22;53739;44.224;22.528;2023-02-28T14:36:33;154.30;2252.80
66831;DHT22;53739;44.224;22.528;2023-02-28T14:39:24;154.30;2252.80
66831;DHT22;53739;44.224;22.528;2023-02-28T14:41:50;154.30;2252.80
66831;DHT22;53739;44.224;22.528;2023-02-28T14:44:25;154.30;2252.80
66831;DHT22;53739;44.224;22.528;2023-02-28T14:47:00;154.40;2252.80
66831;DHT22;53739;44.224;22.528;2023-02-28T14:49:36;154.40;2252.80
66831;DHT22;53739;44.224;22.528;2023-02-28T14:54:39;154.40;2252.80
66831;DHT22;53739;44.224;22.528;2023-02-28T14:57:05;154.40;2252.80
66831;DHT22;53739;44.224;22.528;2023-02-28T14:59:35;154.40;2252.80
66831;DHT22;53739;44.224;22.528;2023-02-28T15:02:34;154.40;2252.80
66831;DHT22;53739;44.224;22.528;2023-02-28T15:07:35;154.40;2252.80
66831;DHT22;53739;44.224;22.528;2023-02-28T15:10:20;154.40;2252.80
66831;DHT22;53739;44.224;22.528;2023-02-28T15:12:58;154.40;2252.80
66831;DHT22;53739;44.224;22.528;2023-02-28T15:20:52;154.30;2252.80
66831;DHT22;53739;44.224;22.528;2023-02-28T15:23:20;154.30;2252.80
66831;DHT22;53739;44.224;22.528;2023-02-28T15:25:47;154.30;2252.80
66831;DHT22;53739;44.224;22.528;2023-02-28T15:28:16;154.30;2252.80
66831;DHT22;53739;44.224;22.528;2023-02-28T15:30:53;154.20;2252.80
66831;DHT22;53739;44.224;22.528;2023-02-28T15:33:20;154.30;2252.80
66831;DHT22;53739;44.224;22.528;2023-02-28T15:35:47;154.30;2252.80
66831;DHT22;53739;44.224;22.528;2023-02-28T15:38:24;154.30;2252.80
66831;DHT22;53739;44.224;22.528;2023-02-28T15:40:58;154.30;2252.80
66831;DHT22;53739;44.224;22.528;2023-02-28T15:48:44;154.40;2252.80
66831;DHT22;53739;44.224;22.528;2023-02-28T15:51:21;154.40;2252.80
66831;DHT22;53739;44.224;22.528;2023-02-28T15:53:59;154.40;2252.80
66831;DHT22;53739;44.224;22.528;2023-02-28T15:56:32;154.40;2252.80
66831;DHT22;53739;44.224;22.528;2023-02-28T15:59:30;154.40;2252.80
66831;DHT22;53739;44.224;22.528;2023-02-28T16:02:12;154.40;2252.80
66831;DHT22;53739;44.224;22.528;2023-02-28T16:07:37;154.40;2252.80
66831;DHT22;53739;44.224;22.528;2023-02-28T16:10:05;154.40;2252.80
66831;DHT22;53739;44.224;22.528;2023-02-28T16:12:32;154.40;2252.80
66831;DHT22;53739;44.224;22.528;2023-02-28T16:15:02;154.40;2252.80
66831;DHT22;53739;44.224;22.528;2023-02-28T16:17:33;154.40;2252.80
66831;DHT22;53739;44.224;22.528;2023-02-28T16:19:59;154.40;2252.80
66831;DHT22;53739;44.224;22.528;2023-02-28T16:22:25;154.50;2252.80
66831;DHT22;53739;44.224;22.528;2023-02-28T16:24:51;154.40;2252.80
66831;DHT22;53739;44.224;22.528;2023-02-28T16:27:21;154.50;2252.80
66831;DHT22;53739;44.224;22.528;2023-02-28T16:29:49;154.50;2252.80
66831;DHT22;53739;44.224;22.528;2023-02-28T16:32:16;154.40;2252.80
66831;DHT22;53739;44.224;22.528;2023-02-28T16:34:43;154.40;2252.80
66831;DHT22;53739;44.224;22.528;2023-02-28T16:37:17;154.50;2252.80
66831;DHT22;53739;44.224;22.528;2023-02-28T16:39:44;154.50;2252.80
66831;DHT22;53739;44.224;22.528;2023-02-28T16:42:23;154.50;2252.80
66831;DHT22;53739;44.224;22.528;2023-02-28T16:44:50;154.50;2252.80
66831;DHT22;53739;44.224;22.528;2023-02-28T16:47:16;154.50;2252.80
66831;DHT22;53739;44.224;22.528;2023-02-28T16:49:42;154.50;2252.80
66831;DHT22;53739;44.224;22.528;2023-02-28T16:52:09;154.50;2252.80
66831;DHT22;53739;44.224;22.528;2023-02-28T16:54:35;154.50;2252.80
66831;DHT22;53739;44.224;22.528;2023-02-28T16:57:01;154.50;2252.80
66831;DHT22;53739;44.224;22.528;2023-02-28T16:59:27;154.50;2252.80
66831;DHT22;53739;44.224;22.528;2023-02-28T17:01:55;154.50;2252.80
66831;DHT22;53739;44.224;22.528;2023-02-28T17:04:26;154.50;2252.80
66831;DHT22;53739;44.224;22.528;2023-02-28T17:06:52;154.50;2252.80
66831;DHT22;53739;44.224;22.528;2023-02-28T17:09:23;154.50;2252.80
66831;DHT22;53739;44.224;22.528;2023-02-28T17:11:49;154.50;2252.80
66831;DHT22;53739;44.224;22.528;2023-02-28T17:14:15;154.50;2252.80
66831;DHT22;53739;44.224;22.528;2023-02-28T17:16:42;154.50;2252.80
66831;DHT22;53739;44.224;22.528;2023-02-28T17:19:15;154.50;2252.80
66831;DHT22;53739;44.224;22.528;2023-02-28T17:21:42;154.50;2252.80
66831;DHT22;53739;44.224;22.528;2023-02-28T17:24:09;154.50;2252.80
66831;DHT22;53739;44.224;22.528;2023-02-28T17:26:41;154.40;2252.80
66831;DHT22;53739;44.224;22.528;2023-02-28T17:29:19;154.50;2252.80
66831;DHT22;53739;44.224;22.528;2023-02-28T17:31:46;154.50;2252.80
66831;DHT22;53739;44.224;22.528;2023-02-28T17:34:12;154.50;2252.80
66831;DHT22;53739;44.224;22.528;2023-02-28T17:36:44;154.50;2252.80
66831;DHT22;53739;44.224;22.528;2023-02-28T17:39:12;154.50;2252.80
66831;DHT22;53739;44.224;22.528;2023-02-28T17:41:45;154.50;2252.80
66831;DHT22;53739;44.224;22.528;2023-02-28T17:44:10;154.50;2252.80